sensor_id;sensor_type;location;lat;lon;timestamp;pressure;altitude;pressure_sealevel;temperature;humidity
58072;BME280;60383;46.626;18.866;2023-11-19T00:00:19;101084.72;;;2.50;82.83
58072;BME280;60383;46.626;18.866;2023-11-19T00:02:44;101073.91;;;2.50;82.92
58072;BME280;60383;46.626;18.866;2023-11-19T00:05:10;101070.44;;;2.32;82.85
58072;BME280;60383;46.626;18.866;2023-11-19T00:07:40;101070.00;;;2.24;83.66
58072;BME280;60383;46.626;18.866;2023-11-19T00:10:11;101080.13;;;2.20;84.21
58072;BME280;60383;46.626;18.866;2023-11-19T00:12:39;101076.47;;;2.05;84.74
58072;BME280;60383;46.626;18.866;2023-11-19T00:15:05;101082.19;;;1.99;84.95
58072;BME280;60383;46.626;18.866;2023-11-19T00:17:32;101085.63;;;2.19;84.69
58072;BME280;60383;46.626;18.866;2023-11-19T00:19:57;101081.34;;;2.15;84.94
58072;BME280;60383;46.626;18.866;2023-11-19T00:22:22;101081.25;;;2.16;84.50
58072;BME280;60383;46.626;18.866;2023-11-19T00:24:48;101076.28;;;2.24;84.34
58072;BME280;60383;46.626;18.866;2023-11-19T00:27:13;101083.50;;;2.40;84.02
58072;BME280;60383;46.626;18.866;2023-11-19T00:29:40;101089.16;;;2.67;82.49
58072;BME280;60383;46.626;18.866;2023-11-19T00:32:05;101075.38;;;2.56;82.82
58072;BME280;60383;46.626;18.866;2023-11-19T00:34:33;101072.53;;;2.43;82.91
58072;BME280;60383;46.626;18.866;2023-11-19T00:36:58;101082.88;;;2.03;84.23
58072;BME280;60383;46.626;18.866;2023-11-19T00:39:23;101082.56;;;2.25;84.34
58072;BME280;60383;46.626;18.866;2023-11-19T00:41:49;101088.19;;;2.52;83.10
58072;BME280;60383;46.626;18.866;2023-11-19T00:44:14;101090.88;;;2.68;82.28
58072;BME280;60383;46.626;18.866;2023-11-19T00:46:40;101102.81;;;2.80;81.27
58072;BME280;60383;46.626;18.866;2023-11-19T00:49:05;101105.84;;;2.90;81.13
58072;BME280;60383;46.626;18.866;2023-11-19T00:51:31;101094.69;;;2.80;81.35
58072;BME280;60383;46.626;18.866;2023-11-19T00:53:59;101090.47;;;2.44;81.78
58072;BME280;60383;46.626;18.866;2023-11-19T00:56:26;101087.19;;;2.07;83.59
58072;BME280;60383;46.626;18.866;2023-11-19T00:58:51;101084.28;;;2.10;84.24
58072;BME280;60383;46.626;18.866;2023-11-19T01:01:17;101087.00;;;2.10;84.68
58072;BME280;60383;46.626;18.866;2023-11-19T01:03:42;101097.28;;;1.87;84.77
58072;BME280;60383;46.626;18.866;2023-11-19T01:06:08;101087.31;;;1.72;85.70
58072;BME280;60383;46.626;18.866;2023-11-19T01:08:33;101080.97;;;1.73;86.07
58072;BME280;60383;46.626;18.866;2023-11-19T01:11:01;101075.38;;;1.76;86.44
58072;BME280;60383;46.626;18.866;2023-11-19T01:13:27;101075.91;;;1.83;86.00
58072;BME280;60383;46.626;18.866;2023-11-19T01:15:52;101087.94;;;1.93;85.82
58072;BME280;60383;46.626;18.866;2023-11-19T01:18:18;101090.41;;;2.14;83.88
58072;BME280;60383;46.626;18.866;2023-11-19T01:20:43;101090.41;;;2.14;84.09
58072;BME280;60383;46.626;18.866;2023-11-19T01:23:09;101068.25;;;2.23;84.40
58072;BME280;60383;46.626;18.866;2023-11-19T01:25:34;101052.91;;;2.07;84.20
58072;BME280;60383;46.626;18.866;2023-11-19T01:28:00;101053.00;;;1.90;85.01
58072;BME280;60383;46.626;18.866;2023-11-19T01:30:27;101058.44;;;1.56;85.96
58072;BME280;60383;46.626;18.866;2023-11-19T01:32:53;101059.47;;;1.87;86.02
58072;BME280;60383;46.626;18.866;2023-11-19T01:35:18;101077.41;;;2.20;84.09
58072;BME280;60383;46.626;18.866;2023-11-19T01:37:44;101090.56;;;2.43;82.54
58072;BME280;60383;46.626;18.866;2023-11-19T01:40:10;101083.63;;;2.22;83.08
58072;BME280;60383;46.626;18.866;2023-11-19T01:42:40;101063.97;;;2.03;84.51
58072;BME280;60383;46.626;18.866;2023-11-19T01:45:06;101052.41;;;1.85;85.59
58072;BME280;60383;46.626;18.866;2023-11-19T01:47:35;101054.19;;;1.68;86.79
58072;BME280;60383;46.626;18.866;2023-11-19T01:50:02;101061.72;;;1.79;87.18
58072;BME280;60383;46.626;18.866;2023-11-19T01:52:34;101070.25;;;1.87;86.39
58072;BME280;60383;46.626;18.866;2023-11-19T01:55:04;101072.28;;;2.16;85.52
58072;BME280;60383;46.626;18.866;2023-11-19T01:57:30;101065.66;;;2.21;85.35
58072;BME280;60383;46.626;18.866;2023-11-19T01:59:55;101055.78;;;2.20;84.92
58072;BME280;60383;46.626;18.866;2023-11-19T02:02:21;101037.31;;;1.97;86.05
58072;BME280;60383;46.626;18.866;2023-11-19T02:04:50;101026.34;;;1.68;87.14
58072;BME280;60383;46.626;18.866;2023-11-19T02:07:16;101028.34;;;1.80;87.00
58072;BME280;60383;46.626;18.866;2023-11-19T02:09:43;101031.28;;;2.07;86.80
58072;BME280;60383;46.626;18.866;2023-11-19T02:12:09;101030.59;;;2.20;85.41
58072;BME280;60383;46.626;18.866;2023-11-19T02:14:37;101019.78;;;2.04;85.95
58072;BME280;60383;46.626;18.866;2023-11-19T02:17:02;101023.81;;;2.13;86.06
58072;BME280;60383;46.626;18.866;2023-11-19T02:19:28;101008.28;;;2.32;85.14
58072;BME280;60383;46.626;18.866;2023-11-19T02:21:54;101011.56;;;2.37;84.91
58072;BME280;60383;46.626;18.866;2023-11-19T02:24:22;100999.44;;;2.45;84.24
58072;BME280;60383;46.626;18.866;2023-11-19T02:27:22;100988.00;;;2.09;84.93
58072;BME280;60383;46.626;18.866;2023-11-19T02:29:52;100983.78;;;2.19;85.05
58072;BME280;60383;46.626;18.866;2023-11-19T02:32:19;100998.56;;;2.28;84.92
58072;BME280;60383;46.626;18.866;2023-11-19T02:34:45;101010.28;;;2.29;84.72
58072;BME280;60383;46.626;18.866;2023-11-19T02:37:11;101012.53;;;2.36;84.50
58072;BME280;60383;46.626;18.866;2023-11-19T02:39:36;101017.28;;;2.01;85.23
58072;BME280;60383;46.626;18.866;2023-11-19T02:42:02;101015.97;;;1.92;86.21
58072;BME280;60383;46.626;18.866;2023-11-19T02:44:27;101017.53;;;1.96;86.89
58072;BME280;60383;46.626;18.866;2023-11-19T02:46:55;101016.13;;;2.05;86.54
58072;BME280;60383;46.626;18.866;2023-11-19T02:49:25;100994.59;;;2.19;86.00
58072;BME280;60383;46.626;18.866;2023-11-19T02:51:50;100990.69;;;2.09;85.46
58072;BME280;60383;46.626;18.866;2023-11-19T02:54:16;100996.09;;;2.09;85.97
58072;BME280;60383;46.626;18.866;2023-11-19T02:56:44;100999.41;;;2.14;85.15
58072;BME280;60383;46.626;18.866;2023-11-19T02:59:13;101000.53;;;2.10;85.37
58072;BME280;60383;46.626;18.866;2023-11-19T03:01:52;100986.06;;;2.11;85.25
58072;BME280;60383;46.626;18.866;2023-11-19T03:04:18;100989.44;;;2.15;85.31
58072;BME280;60383;46.626;18.866;2023-11-19T03:06:45;100987.03;;;1.94;86.01
58072;BME280;60383;46.626;18.866;2023-11-19T03:09:11;100987.19;;;2.07;85.58
58072;BME280;60383;46.626;18.866;2023-11-19T03:11:37;100991.91;;;2.03;86.24
58072;BME280;60383;46.626;18.866;2023-11-19T03:14:02;100987.03;;;1.94;86.44
58072;BME280;60383;46.626;18.866;2023-11-19T03:16:31;100977.38;;;1.90;86.20
58072;BME280;60383;46.626;18.866;2023-11-19T03:18:57;100980.16;;;1.88;86.62
58072;BME280;60383;46.626;18.866;2023-11-19T03:21:29;100975.94;;;2.15;85.55
58072;BME280;60383;46.626;18.866;2023-11-19T03:23:55;100970.09;;;2.06;85.55
58072;BME280;60383;46.626;18.866;2023-11-19T03:26:21;100960.78;;;2.12;85.66
58072;BME280;60383;46.626;18.866;2023-11-19T03:28:47;100962.53;;;2.13;85.41
58072;BME280;60383;46.626;18.866;2023-11-19T03:31:12;100960.63;;;2.46;83.69
58072;BME280;60383;46.626;18.866;2023-11-19T03:33:38;100961.47;;;2.46;83.10
58072;BME280;60383;46.626;18.866;2023-11-19T03:36:04;100959.31;;;2.37;83.44
58072;BME280;60383;46.626;18.866;2023-11-19T03:38:29;100957.75;;;2.33;83.69
58072;BME280;60383;46.626;18.866;2023-11-19T03:40:55;100949.69;;;2.17;84.54
58072;BME280;60383;46.626;18.866;2023-11-19T03:43:20;100955.00;;;2.18;84.43
58072;BME280;60383;46.626;18.866;2023-11-19T03:45:46;100957.88;;;2.31;84.13
58072;BME280;60383;46.626;18.866;2023-11-19T03:48:11;100955.16;;;2.31;83.74
58072;BME280;60383;46.626;18.866;2023-11-19T03:50:37;100963.00;;;2.20;83.95
58072;BME280;60383;46.626;18.866;2023-11-19T03:53:02;100957.06;;;2.29;83.56
58072;BME280;60383;46.626;18.866;2023-11-19T03:55:28;100956.31;;;2.11;83.98
58072;BME280;60383;46.626;18.866;2023-11-19T03:57:54;100943.56;;;1.83;85.16
58072;BME280;60383;46.626;18.866;2023-11-19T04:00:20;100940.53;;;1.57;86.69
58072;BME280;60383;46.626;18.866;2023-11-19T04:02:46;100930.84;;;1.69;86.18
58072;BME280;60383;46.626;18.866;2023-11-19T04:05:12;100927.53;;;1.80;85.97
58072;BME280;60383;46.626;18.866;2023-11-19T04:07:37;100923.69;;;1.84;86.11
58072;BME280;60383;46.626;18.866;2023-11-19T04:10:03;100904.63;;;1.71;86.37
58072;BME280;60383;46.626;18.866;2023-11-19T04:12:29;100909.69;;;1.61;86.86
58072;BME280;60383;46.626;18.866;2023-11-19T04:14:54;100904.63;;;1.55;87.05
58072;BME280;60383;46.626;18.866;2023-11-19T04:17:21;100895.22;;;1.62;87.44
58072;BME280;60383;46.626;18.866;2023-11-19T04:19:48;100896.53;;;1.71;86.91
58072;BME280;60383;46.626;18.866;2023-11-19T04:22:14;100890.94;;;1.58;87.16
58072;BME280;60383;46.626;18.866;2023-11-19T04:24:39;100881.53;;;1.65;87.83
58072;BME280;60383;46.626;18.866;2023-11-19T04:27:06;100886.50;;;1.73;87.25
58072;BME280;60383;46.626;18.866;2023-11-19T04:29:31;100882.28;;;1.83;86.91
58072;BME280;60383;46.626;18.866;2023-11-19T04:31:57;100889.44;;;1.84;86.31
58072;BME280;60383;46.626;18.866;2023-11-19T04:34:23;100890.66;;;1.79;87.02
58072;BME280;60383;46.626;18.866;2023-11-19T04:36:49;100897.88;;;1.94;86.15
58072;BME280;60383;46.626;18.866;2023-11-19T04:39:14;100903.44;;;2.07;84.95
58072;BME280;60383;46.626;18.866;2023-11-19T04:41:50;100902.91;;;2.00;85.91
58072;BME280;60383;46.626;18.866;2023-11-19T04:44:19;100888.44;;;2.01;85.61
58072;BME280;60383;46.626;18.866;2023-11-19T04:46:44;100889.72;;;2.10;85.29
58072;BME280;60383;46.626;18.866;2023-11-19T04:49:13;100890.78;;;2.07;84.92
58072;BME280;60383;46.626;18.866;2023-11-19T04:51:44;100891.34;;;1.98;85.05
58072;BME280;60383;46.626;18.866;2023-11-19T04:54:12;100891.47;;;2.11;84.79
58072;BME280;60383;46.626;18.866;2023-11-19T04:56:38;100885.00;;;2.14;85.23
58072;BME280;60383;46.626;18.866;2023-11-19T04:59:03;100887.03;;;2.10;86.11
58072;BME280;60383;46.626;18.866;2023-11-19T05:01:31;100879.84;;;1.95;86.42
58072;BME280;60383;46.626;18.866;2023-11-19T05:03:56;100885.75;;;2.01;86.97
58072;BME280;60383;46.626;18.866;2023-11-19T05:06:29;100880.34;;;2.01;86.94
58072;BME280;60383;46.626;18.866;2023-11-19T05:08:55;100875.81;;;2.02;86.63
58072;BME280;60383;46.626;18.866;2023-11-19T05:11:21;100881.59;;;1.96;87.40
58072;BME280;60383;46.626;18.866;2023-11-19T05:13:47;100895.13;;;2.10;87.08
58072;BME280;60383;46.626;18.866;2023-11-19T05:16:12;100893.81;;;2.17;86.77
58072;BME280;60383;46.626;18.866;2023-11-19T05:18:41;100885.41;;;2.22;85.74
58072;BME280;60383;46.626;18.866;2023-11-19T05:21:06;100882.19;;;2.31;85.48
58072;BME280;60383;46.626;18.866;2023-11-19T05:23:33;100885.59;;;2.49;83.87
58072;BME280;60383;46.626;18.866;2023-11-19T05:26:01;100891.28;;;2.45;84.30
58072;BME280;60383;46.626;18.866;2023-11-19T05:28:27;100889.44;;;2.45;83.94
58072;BME280;60383;46.626;18.866;2023-11-19T05:30:53;100892.66;;;2.52;83.21
58072;BME280;60383;46.626;18.866;2023-11-19T05:33:18;100896.59;;;2.46;83.51
58072;BME280;60383;46.626;18.866;2023-11-19T05:35:44;100904.84;;;2.29;84.99
58072;BME280;60383;46.626;18.866;2023-11-19T05:38:09;100898.44;;;2.15;85.30
58072;BME280;60383;46.626;18.866;2023-11-19T05:40:35;100900.59;;;2.24;85.22
58072;BME280;60383;46.626;18.866;2023-11-19T05:43:01;100893.03;;;2.46;83.14
58072;BME280;60383;46.626;18.866;2023-11-19T05:45:27;100895.25;;;2.53;81.63
58072;BME280;60383;46.626;18.866;2023-11-19T05:47:52;100887.81;;;2.57;81.58
58072;BME280;60383;46.626;18.866;2023-11-19T05:50:18;100888.00;;;2.68;81.33
58072;BME280;60383;46.626;18.866;2023-11-19T05:52:44;100893.25;;;2.71;80.18
58072;BME280;60383;46.626;18.866;2023-11-19T05:55:09;100899.53;;;2.86;79.28
58072;BME280;60383;46.626;18.866;2023-11-19T05:57:36;100888.09;;;2.52;79.80
58072;BME280;60383;46.626;18.866;2023-11-19T06:00:02;100893.63;;;2.65;79.93
58072;BME280;60383;46.626;18.866;2023-11-19T06:02:32;100889.66;;;2.57;80.63
58072;BME280;60383;46.626;18.866;2023-11-19T06:04:58;100889.97;;;2.66;80.54
58072;BME280;60383;46.626;18.866;2023-11-19T06:07:23;100877.41;;;2.80;79.44
58072;BME280;60383;46.626;18.866;2023-11-19T06:09:49;100876.50;;;2.65;79.74
58072;BME280;60383;46.626;18.866;2023-11-19T06:12:14;100867.84;;;2.74;79.49
58072;BME280;60383;46.626;18.866;2023-11-19T06:14:40;100862.31;;;2.76;79.10
58072;BME280;60383;46.626;18.866;2023-11-19T06:17:05;100859.94;;;2.71;79.19
58072;BME280;60383;46.626;18.866;2023-11-19T06:19:31;100867.06;;;2.72;79.09
58072;BME280;60383;46.626;18.866;2023-11-19T06:21:56;100856.72;;;2.64;79.53
58072;BME280;60383;46.626;18.866;2023-11-19T06:24:22;100869.66;;;2.59;80.39
58072;BME280;60383;46.626;18.866;2023-11-19T06:26:47;100865.50;;;2.68;80.34
58072;BME280;60383;46.626;18.866;2023-11-19T06:29:13;100870.34;;;2.63;82.25
58072;BME280;60383;46.626;18.866;2023-11-19T06:31:43;100868.69;;;2.75;83.95
58072;BME280;60383;46.626;18.866;2023-11-19T06:34:10;100873.63;;;2.82;83.45
58072;BME280;60383;46.626;18.866;2023-11-19T06:36:35;100871.00;;;2.95;83.46
58072;BME280;60383;46.626;18.866;2023-11-19T06:39:01;100871.38;;;3.03;85.02
58072;BME280;60383;46.626;18.866;2023-11-19T06:41:27;100878.16;;;3.11;82.99
58072;BME280;60383;46.626;18.866;2023-11-19T06:43:54;100876.78;;;3.32;82.33
58072;BME280;60383;46.626;18.866;2023-11-19T06:46:19;100875.31;;;3.27;81.52
58072;BME280;60383;46.626;18.866;2023-11-19T06:48:45;100874.75;;;3.22;82.95
58072;BME280;60383;46.626;18.866;2023-11-19T06:51:11;100871.63;;;3.42;83.19
58072;BME280;60383;46.626;18.866;2023-11-19T06:53:37;100866.31;;;3.68;81.56
58072;BME280;60383;46.626;18.866;2023-11-19T06:56:03;100848.72;;;3.61;81.03
58072;BME280;60383;46.626;18.866;2023-11-19T06:58:32;100842.13;;;3.92;79.23
58072;BME280;60383;46.626;18.866;2023-11-19T07:00:59;100841.44;;;4.16;77.85
58072;BME280;60383;46.626;18.866;2023-11-19T07:03:25;100850.56;;;4.54;76.15
58072;BME280;60383;46.626;18.866;2023-11-19T07:05:50;100842.81;;;5.12;73.26
58072;BME280;60383;46.626;18.866;2023-11-19T07:08:16;100838.84;;;5.66;70.40
58072;BME280;60383;46.626;18.866;2023-11-19T07:10:42;100824.44;;;6.48;66.37
58072;BME280;60383;46.626;18.866;2023-11-19T07:13:07;100822.75;;;6.93;63.81
58072;BME280;60383;46.626;18.866;2023-11-19T07:15:33;100822.47;;;6.96;62.95
58072;BME280;60383;46.626;18.866;2023-11-19T07:17:58;100822.75;;;6.93;62.62
58072;BME280;60383;46.626;18.866;2023-11-19T07:20:25;100841.16;;;6.78;62.29
58072;BME280;60383;46.626;18.866;2023-11-19T07:22:52;100840.03;;;6.58;64.17
58072;BME280;60383;46.626;18.866;2023-11-19T07:25:18;100835.78;;;6.42;64.06
58072;BME280;60383;46.626;18.866;2023-11-19T07:27:43;100828.78;;;5.80;65.46
58072;BME280;60383;46.626;18.866;2023-11-19T07:30:09;100839.53;;;5.20;67.55
58072;BME280;60383;46.626;18.866;2023-11-19T07:32:34;100840.16;;;5.23;68.83
58072;BME280;60383;46.626;18.866;2023-11-19T07:35:00;100825.69;;;4.86;69.52
58072;BME280;60383;46.626;18.866;2023-11-19T07:37:26;100814.69;;;5.13;69.54
58072;BME280;60383;46.626;18.866;2023-11-19T07:39:51;100820.75;;;5.17;69.43
58072;BME280;60383;46.626;18.866;2023-11-19T07:42:17;100827.31;;;5.01;69.52
58072;BME280;60383;46.626;18.866;2023-11-19T07:44:43;100826.34;;;4.89;69.49
58072;BME280;60383;46.626;18.866;2023-11-19T07:47:09;100816.38;;;4.64;71.57
58072;BME280;60383;46.626;18.866;2023-11-19T07:49:35;100829.50;;;4.70;70.57
58072;BME280;60383;46.626;18.866;2023-11-19T07:52:01;100833.88;;;4.60;70.94
58072;BME280;60383;46.626;18.866;2023-11-19T07:54:28;100843.84;;;4.46;71.35
58072;BME280;60383;46.626;18.866;2023-11-19T07:56:54;100841.53;;;4.27;72.54
58072;BME280;60383;46.626;18.866;2023-11-19T07:59:19;100829.53;;;4.31;72.76
58072;BME280;60383;46.626;18.866;2023-11-19T08:01:45;100826.81;;;4.31;73.33
58072;BME280;60383;46.626;18.866;2023-11-19T08:04:10;100825.28;;;4.27;72.88
58072;BME280;60383;46.626;18.866;2023-11-19T08:06:36;100835.16;;;4.28;73.52
58072;BME280;60383;46.626;18.866;2023-11-19T08:09:02;100844.25;;;4.27;72.33
58072;BME280;60383;46.626;18.866;2023-11-19T08:11:27;100844.13;;;4.16;73.93
58072;BME280;60383;46.626;18.866;2023-11-19T08:13:53;100842.09;;;4.20;75.20
58072;BME280;60383;46.626;18.866;2023-11-19T08:16:18;100845.81;;;4.31;74.21
58072;BME280;60383;46.626;18.866;2023-11-19T08:18:43;100838.75;;;4.29;73.86
58072;BME280;60383;46.626;18.866;2023-11-19T08:21:09;100831.91;;;4.23;74.80
58072;BME280;60383;46.626;18.866;2023-11-19T08:23:36;100824.41;;;4.27;74.88
58072;BME280;60383;46.626;18.866;2023-11-19T08:26:01;100825.81;;;4.32;75.33
58072;BME280;60383;46.626;18.866;2023-11-19T08:28:27;100819.31;;;4.48;74.52
58072;BME280;60383;46.626;18.866;2023-11-19T08:30:53;100821.72;;;4.53;74.09
58072;BME280;60383;46.626;18.866;2023-11-19T08:33:18;100820.63;;;4.42;73.83
58072;BME280;60383;46.626;18.866;2023-11-19T08:35:44;100823.03;;;4.34;73.97
58072;BME280;60383;46.626;18.866;2023-11-19T08:38:10;100823.44;;;4.41;75.54
58072;BME280;60383;46.626;18.866;2023-11-19T08:40:35;100817.47;;;4.61;75.35
58072;BME280;60383;46.626;18.866;2023-11-19T08:43:01;100813.00;;;4.73;72.85
58072;BME280;60383;46.626;18.866;2023-11-19T08:45:26;100812.56;;;4.79;71.52
58072;BME280;60383;46.626;18.866;2023-11-19T08:47:52;100793.06;;;4.61;72.60
58072;BME280;60383;46.626;18.866;2023-11-19T08:50:17;100780.81;;;4.30;73.40
58072;BME280;60383;46.626;18.866;2023-11-19T08:52:43;100762.69;;;4.43;72.24
58072;BME280;60383;46.626;18.866;2023-11-19T08:55:08;100766.38;;;4.55;72.79
58072;BME280;60383;46.626;18.866;2023-11-19T08:57:35;100765.28;;;4.58;72.11
58072;BME280;60383;46.626;18.866;2023-11-19T09:00:00;100765.06;;;4.48;72.97
58072;BME280;60383;46.626;18.866;2023-11-19T09:02:26;100753.56;;;4.44;73.61
58072;BME280;60383;46.626;18.866;2023-11-19T09:04:52;100749.13;;;4.56;73.08
58072;BME280;60383;46.626;18.866;2023-11-19T09:07:17;100746.59;;;4.79;73.03
58072;BME280;60383;46.626;18.866;2023-11-19T09:09:43;100738.78;;;4.61;73.19
58072;BME280;60383;46.626;18.866;2023-11-19T09:12:08;100748.66;;;4.75;73.52
58072;BME280;60383;46.626;18.866;2023-11-19T09:14:33;100735.34;;;4.96;72.66
58072;BME280;60383;46.626;18.866;2023-11-19T09:16:59;100738.69;;;5.00;72.72
58072;BME280;60383;46.626;18.866;2023-11-19T09:19:25;100718.25;;;4.70;74.06
58072;BME280;60383;46.626;18.866;2023-11-19T09:21:54;100726.56;;;4.93;74.94
58072;BME280;60383;46.626;18.866;2023-11-19T09:24:19;100726.09;;;4.99;74.93
58072;BME280;60383;46.626;18.866;2023-11-19T09:26:45;100753.78;;;5.04;74.48
58072;BME280;60383;46.626;18.866;2023-11-19T09:29:11;100755.34;;;5.20;73.65
58072;BME280;60383;46.626;18.866;2023-11-19T09:31:39;100746.41;;;5.31;72.32
58072;BME280;60383;46.626;18.866;2023-11-19T09:34:05;100734.91;;;5.27;72.22
58072;BME280;60383;46.626;18.866;2023-11-19T09:36:30;100726.03;;;5.25;72.28
58072;BME280;60383;46.626;18.866;2023-11-19T09:38:56;100705.09;;;5.14;73.56
58072;BME280;60383;46.626;18.866;2023-11-19T09:41:23;100714.44;;;5.10;72.80
58072;BME280;60383;46.626;18.866;2023-11-19T09:43:49;100710.41;;;4.78;72.80
58072;BME280;60383;46.626;18.866;2023-11-19T09:46:16;100725.72;;;4.79;74.07
58072;BME280;60383;46.626;18.866;2023-11-19T09:48:42;100728.91;;;5.10;73.19
58072;BME280;60383;46.626;18.866;2023-11-19T09:51:09;100705.00;;;4.78;74.49
58072;BME280;60383;46.626;18.866;2023-11-19T09:53:35;100697.28;;;4.85;75.01
58072;BME280;60383;46.626;18.866;2023-11-19T09:56:02;100700.47;;;4.79;75.82
58072;BME280;60383;46.626;18.866;2023-11-19T09:58:29;100697.31;;;5.09;76.58
58072;BME280;60383;46.626;18.866;2023-11-19T10:00:55;100697.34;;;5.56;74.46
58072;BME280;60383;46.626;18.866;2023-11-19T10:03:24;100702.22;;;5.75;72.46
58072;BME280;60383;46.626;18.866;2023-11-19T10:05:53;100695.69;;;5.78;73.10
58072;BME280;60383;46.626;18.866;2023-11-19T10:08:20;100694.66;;;6.15;73.12
58072;BME280;60383;46.626;18.866;2023-11-19T10:10:45;100702.97;;;6.25;74.49
58072;BME280;60383;46.626;18.866;2023-11-19T10:13:11;100698.78;;;6.43;72.03
58072;BME280;60383;46.626;18.866;2023-11-19T10:15:40;100694.94;;;6.46;70.27
58072;BME280;60383;46.626;18.866;2023-11-19T10:18:05;100686.25;;;6.75;69.62
58072;BME280;60383;46.626;18.866;2023-11-19T10:20:36;100663.66;;;6.51;70.11
58072;BME280;60383;46.626;18.866;2023-11-19T10:23:02;100658.06;;;6.53;66.11
58072;BME280;60383;46.626;18.866;2023-11-19T10:25:28;100674.59;;;6.84;67.19
58072;BME280;60383;46.626;18.866;2023-11-19T10:27:55;100690.69;;;6.87;67.07
58072;BME280;60383;46.626;18.866;2023-11-19T10:30:25;100692.56;;;6.75;66.80
58072;BME280;60383;46.626;18.866;2023-11-19T10:33:04;100681.19;;;6.47;66.32
58072;BME280;60383;46.626;18.866;2023-11-19T10:35:34;100675.53;;;6.28;67.88
58072;BME280;60383;46.626;18.866;2023-11-19T10:38:01;100664.38;;;6.53;67.12
58072;BME280;60383;46.626;18.866;2023-11-19T10:40:38;100654.47;;;6.64;67.33
58072;BME280;60383;46.626;18.866;2023-11-19T10:43:07;100653.25;;;7.00;65.89
58072;BME280;60383;46.626;18.866;2023-11-19T10:45:33;100653.66;;;7.28;65.77
58072;BME280;60383;46.626;18.866;2023-11-19T10:47:59;100656.53;;;7.27;65.99
58072;BME280;60383;46.626;18.866;2023-11-19T10:50:25;100652.53;;;7.31;63.42
58072;BME280;60383;46.626;18.866;2023-11-19T10:52:56;100643.91;;;7.47;63.02
58072;BME280;60383;46.626;18.866;2023-11-19T10:55:27;100647.97;;;7.20;62.89
58072;BME280;60383;46.626;18.866;2023-11-19T10:57:59;100652.38;;;7.32;64.02
58072;BME280;60383;46.626;18.866;2023-11-19T11:00:26;100642.22;;;7.34;66.63
58072;BME280;60383;46.626;18.866;2023-11-19T11:02:58;100633.44;;;7.31;63.75
58072;BME280;60383;46.626;18.866;2023-11-19T11:05:26;100634.50;;;7.18;63.40
58072;BME280;60383;46.626;18.866;2023-11-19T11:07:52;100632.16;;;6.81;64.88
58072;BME280;60383;46.626;18.866;2023-11-19T11:10:21;100622.91;;;6.72;66.49
58072;BME280;60383;46.626;18.866;2023-11-19T11:12:52;100621.88;;;6.85;65.13
58072;BME280;60383;46.626;18.866;2023-11-19T11:15:26;100627.03;;;6.33;65.34
58072;BME280;60383;46.626;18.866;2023-11-19T11:17:58;100618.72;;;6.57;66.38
58072;BME280;60383;46.626;18.866;2023-11-19T11:20:25;100605.91;;;6.48;66.71
58072;BME280;60383;46.626;18.866;2023-11-19T11:28:48;100601.81;;;6.42;65.09
58072;BME280;60383;46.626;18.866;2023-11-19T11:31:36;100605.16;;;6.46;65.39
58072;BME280;60383;46.626;18.866;2023-11-19T11:34:22;100600.22;;;6.39;66.15
58072;BME280;60383;46.626;18.866;2023-11-19T11:39:35;100605.97;;;6.69;66.36
58072;BME280;60383;46.626;18.866;2023-11-19T11:44:58;100564.38;;;6.23;67.65
58072;BME280;60383;46.626;18.866;2023-11-19T11:47:25;100562.69;;;6.54;66.92
58072;BME280;60383;46.626;18.866;2023-11-19T11:49:51;100563.84;;;7.06;65.24
58072;BME280;60383;46.626;18.866;2023-11-19T11:52:17;100560.88;;;7.30;64.49
58072;BME280;60383;46.626;18.866;2023-11-19T11:54:44;100553.03;;;7.58;61.58
58072;BME280;60383;46.626;18.866;2023-11-19T11:57:13;100543.25;;;7.55;62.18
58072;BME280;60383;46.626;18.866;2023-11-19T12:02:08;100538.41;;;7.59;62.84
58072;BME280;60383;46.626;18.866;2023-11-19T12:04:34;100535.09;;;7.55;62.57
58072;BME280;60383;46.626;18.866;2023-11-19T12:07:09;100541.28;;;7.57;60.80
58072;BME280;60383;46.626;18.866;2023-11-19T12:09:42;100526.19;;;7.32;61.78
58072;BME280;60383;46.626;18.866;2023-11-19T12:20:02;100516.41;;;7.81;59.26
58072;BME280;60383;46.626;18.866;2023-11-19T12:22:28;100529.06;;;7.82;59.42
58072;BME280;60383;46.626;18.866;2023-11-19T12:24:54;100525.63;;;7.90;57.58
58072;BME280;60383;46.626;18.866;2023-11-19T12:27:20;100503.41;;;7.64;59.64
58072;BME280;60383;46.626;18.866;2023-11-19T12:29:49;100504.66;;;7.91;60.69
58072;BME280;60383;46.626;18.866;2023-11-19T12:32:15;100490.03;;;8.52;58.55
58072;BME280;60383;46.626;18.866;2023-11-19T12:34:42;100478.75;;;8.16;60.18
58072;BME280;60383;46.626;18.866;2023-11-19T12:37:09;100480.34;;;8.28;59.85
58072;BME280;60383;46.626;18.866;2023-11-19T12:39:35;100495.31;;;8.44;58.05
58072;BME280;60383;46.626;18.866;2023-11-19T12:42:01;100486.00;;;8.66;57.64
58072;BME280;60383;46.626;18.866;2023-11-19T12:44:27;100482.22;;;8.18;58.91
58072;BME280;60383;46.626;18.866;2023-11-19T12:47:03;100472.03;;;8.20;58.94
58072;BME280;60383;46.626;18.866;2023-11-19T12:49:29;100470.97;;;8.11;59.31
58072;BME280;60383;46.626;18.866;2023-11-19T12:51:55;100459.47;;;7.98;60.23
58072;BME280;60383;46.626;18.866;2023-11-19T12:54:34;100454.75;;;8.00;58.15
58072;BME280;60383;46.626;18.866;2023-11-19T12:57:00;100454.75;;;8.00;58.22
58072;BME280;60383;46.626;18.866;2023-11-19T12:59:26;100466.50;;;8.00;58.63
58072;BME280;60383;46.626;18.866;2023-11-19T13:01:58;100454.34;;;8.05;57.83
58072;BME280;60383;46.626;18.866;2023-11-19T13:04:29;100467.22;;;7.93;58.22
58072;BME280;60383;46.626;18.866;2023-11-19T13:06:57;100455.13;;;7.86;58.95
58072;BME280;60383;46.626;18.866;2023-11-19T13:09:23;100444.47;;;7.73;58.94